Time;durP1;ratioP1;P1;durP2;ratioP2;P2;SDS_P1;SDS_P2;PMS_P1;PMS_P2;Temp;Humidity;BMP_temperature;BMP_pressure;BME280_temperature;BME280_humidity;BME280_pressure;Samples;Min_cycle;Max_cycle;Signal;HPM_P1;HPM_P2
2023/05/03 00:00:35;;;;;;;6.53;2.45;;;;;;;4.62;97.69;102624.59;5031728;28;20179;-50
2023/05/03 00:03:03;;;;;;;5.78;2.35;;;;;;;4.23;97.10;102623.94;5028784;28;20199;-50
2023/05/03 00:05:30;;;;;;;5.30;2.70;;;;;;;4.22;97.72;102630.13;5039917;28;20182;-50
2023/05/03 00:07:55;;;;;;;4.82;2.28;;;;;;;4.40;98.07;102639.28;5041213;28;20258;-51
2023/05/03 00:10:21;;;;;;;4.20;2.42;;;;;;;4.33;98.12;102631.22;5031113;28;20180;-49
2023/05/03 00:12:46;;;;;;;7.88;2.75;;;;;;;4.42;98.42;102640.19;5028626;28;20211;-49
2023/05/03 00:15:12;;;;;;;6.70;2.60;;;;;;;4.22;98.16;102632.78;5038055;28;20223;-50
2023/05/03 00:17:38;;;;;;;5.70;2.53;;;;;;;4.38;98.24;102638.34;5027463;28;20179;-50
2023/05/03 00:20:04;;;;;;;6.15;2.42;;;;;;;4.45;98.32;102642.88;5030730;28;20195;-50
2023/05/03 00:22:31;;;;;;;5.88;3.10;;;;;;;4.30;98.02;102647.06;5036249;28;20279;-53
2023/05/03 00:24:57;;;;;;;5.55;2.75;;;;;;;4.30;98.56;102639.09;5044307;28;20642;-51
2023/05/03 00:27:23;;;;;;;6.95;2.88;;;;;;;4.23;98.54;102645.19;5038965;28;20187;-49
2023/05/03 00:29:51;;;;;;;4.95;2.75;;;;;;;4.42;98.45;102646.38;5021451;28;20181;-51
2023/05/03 00:32:18;;;;;;;5.88;3.03;;;;;;;4.26;98.46;102645.25;5026171;28;20612;-49
2023/05/03 00:34:44;;;;;;;9.15;3.13;;;;;;;4.29;98.81;102636.44;5035968;28;20199;-50
2023/05/03 00:37:09;;;;;;;7.57;3.38;;;;;;;4.25;99.48;102647.88;5028987;28;20601;-51
2023/05/03 00:39:35;;;;;;;5.55;3.28;;;;;;;4.14;100.00;102650.34;5024658;28;20191;-51
2023/05/03 00:42:03;;;;;;;7.40;3.00;;;;;;;4.16;100.00;102639.75;5042792;28;20231;-51
2023/05/03 00:44:29;;;;;;;5.85;3.38;;;;;;;4.20;100.00;102649.53;5029573;28;20196;-52
2023/05/03 00:46:55;;;;;;;4.93;3.15;;;;;;;4.13;100.00;102638.84;5031317;28;20655;-50
2023/05/03 00:49:23;;;;;;;9.38;3.70;;;;;;;4.09;100.00;102655.56;5030524;28;20617;-51
2023/05/03 00:51:50;;;;;;;6.50;3.40;;;;;;;4.20;100.00;102647.78;5037740;28;20307;-52
2023/05/03 00:54:16;;;;;;;6.22;3.33;;;;;;;4.28;100.00;102650.56;5035427;28;20535;-49
2023/05/03 00:56:42;;;;;;;9.32;3.25;;;;;;;4.03;100.00;102657.22;5027241;28;20180;-52
2023/05/03 00:59:08;;;;;;;9.38;4.47;;;;;;;4.09;100.00;102655.56;5020191;28;20188;-51
2023/05/03 01:01:34;;;;;;;7.82;3.58;;;;;;;4.04;100.00;102659.88;5040125;28;20783;-49
2023/05/03 01:04:00;;;;;;;6.22;3.40;;;;;;;4.12;100.00;102658.25;5030817;28;20273;-50
2023/05/03 01:06:37;;;;;;;5.28;3.10;;;;;;;4.26;100.00;102653.22;5032239;28;20168;-51
2023/05/03 01:09:31;;;;;;;6.38;3.13;;;;;;;4.27;100.00;102651.44;5031434;28;20287;-50
2023/05/03 01:12:11;;;;;;;6.72;3.88;;;;;;;4.08;100.00;102645.78;5039088;28;20570;-50
2023/05/03 01:15:13;;;;;;;7.70;4.10;;;;;;;3.82;100.00;102644.44;5021174;28;20202;-49
2023/05/03 01:17:45;;;;;;;7.80;3.60;;;;;;;3.84;100.00;102648.88;5010536;28;20800;-51
2023/05/03 01:20:13;;;;;;;11.95;3.92;;;;;;;3.74;100.00;102654.00;5033461;28;20289;-51
2023/05/03 01:22:48;;;;;;;7.00;3.38;;;;;;;3.37;100.00;102659.47;5036755;28;20191;-51
2023/05/03 01:25:15;;;;;;;8.50;3.90;;;;;;;3.45;100.00;102656.94;5032091;28;20188;-52
2023/05/03 01:27:41;;;;;;;8.38;3.40;;;;;;;3.45;100.00;102654.31;5023318;28;20179;-51
2023/05/03 01:30:09;;;;;;;11.15;4.43;;;;;;;3.45;100.00;102671.09;5033697;28;20201;-50
2023/05/03 01:32:53;;;;;;;5.35;3.83;;;;;;;3.19;100.00;102665.25;5026583;28;20204;-51
2023/05/03 01:35:41;;;;;;;7.15;3.33;;;;;;;3.30;100.00;102668.13;5031958;28;20180;-50
2023/05/03 01:38:08;;;;;;;6.53;3.63;;;;;;;3.23;100.00;102667.09;5032943;28;20195;-52
2023/05/03 01:40:41;;;;;;;9.57;3.72;;;;;;;3.04;100.00;102665.81;5038323;28;20179;-49
2023/05/03 01:43:11;;;;;;;11.73;4.57;;;;;;;3.07;100.00;102664.97;5039380;28;20221;-49
2023/05/03 01:45:39;;;;;;;8.07;3.60;;;;;;;3.21;100.00;102667.94;5021875;28;20632;-52
2023/05/03 01:48:10;;;;;;;4.82;3.75;;;;;;;3.29;100.00;102669.88;5031863;28;20188;-51
2023/05/03 01:50:35;;;;;;;9.32;3.75;;;;;;;3.35;100.00;102666.47;5030606;28;20314;-52
2023/05/03 01:53:01;;;;;;;8.38;3.65;;;;;;;3.43;100.00;102677.22;5032009;28;20279;-50
2023/05/03 01:55:27;;;;;;;6.97;4.22;;;;;;;3.46;100.00;102679.97;5031153;28;20275;-52
2023/05/03 01:57:53;;;;;;;6.55;3.92;;;;;;;3.45;100.00;102678.16;5038916;28;20210;-53
2023/05/03 02:00:18;;;;;;;6.90;3.55;;;;;;;3.57;100.00;102670.47;5036762;28;20664;-50
2023/05/03 02:02:45;;;;;;;7.07;4.03;;;;;;;3.51;100.00;102671.22;5015084;28;20215;-51
2023/05/03 02:05:11;;;;;;;6.63;3.58;;;;;;;3.59;100.00;102668.75;5013094;28;20177;-51
2023/05/03 02:07:37;;;;;;;10.90;4.72;;;;;;;3.50;100.00;102673.88;5031646;28;20184;-51
2023/05/03 02:10:04;;;;;;;5.25;3.70;;;;;;;3.56;100.00;102675.72;5033087;28;20607;-52
2023/05/03 02:12:30;;;;;;;9.85;4.32;;;;;;;3.33;100.00;102675.25;5021060;28;20239;-52
2023/05/03 02:14:55;;;;;;;8.75;4.70;;;;;;;3.37;100.00;102672.72;5039974;28;20196;-52
2023/05/03 02:17:25;;;;;;;13.75;4.47;;;;;;;3.28;100.00;102683.13;5024647;28;20184;-51
2023/05/03 02:19:51;;;;;;;5.85;3.63;;;;;;;3.33;100.00;102697.34;5034077;28;20195;-51
2023/05/03 02:22:17;;;;;;;8.70;4.40;;;;;;;3.20;100.00;102697.94;5029587;28;20189;-51
2023/05/03 02:24:42;;;;;;;8.23;4.45;;;;;;;3.36;100.00;102700.03;5030456;28;20282;-53
2023/05/03 02:27:08;;;;;;;12.00;4.93;;;;;;;3.24;100.00;102695.38;5039313;28;20574;-52
2023/05/03 02:29:34;;;;;;;6.68;3.45;;;;;;;3.22;100.00;102698.88;5031612;28;20271;-52
2023/05/03 02:32:04;;;;;;;6.50;4.03;;;;;;;3.22;100.00;102689.16;5029733;28;20226;-51
2023/05/03 02:34:31;;;;;;;7.50;4.40;;;;;;;3.23;100.00;102708.59;5029979;28;20169;-51
2023/05/03 02:36:57;;;;;;;9.45;4.35;;;;;;;3.29;100.00;102699.03;5034070;28;20187;-52
2023/05/03 02:39:22;;;;;;;10.57;4.20;;;;;;;2.96;100.00;102696.50;5035013;28;20655;-52
2023/05/03 02:41:49;;;;;;;9.68;4.70;;;;;;;2.92;100.00;102699.94;5027112;28;20291;-51
2023/05/03 02:44:15;;;;;;;11.90;4.63;;;;;;;2.79;100.00;102688.16;5023113;28;20598;-51
2023/05/03 02:46:40;;;;;;;8.75;3.97;;;;;;;2.87;100.00;102693.66;5036024;28;20171;-50
2023/05/03 02:49:07;;;;;;;6.60;3.58;;;;;;;2.98;100.00;102702.75;5030405;28;20182;-52
2023/05/03 02:51:32;;;;;;;5.47;3.53;;;;;;;3.01;100.00;102697.50;5017492;28;20236;-52
2023/05/03 02:53:58;;;;;;;10.70;4.57;;;;;;;2.85;100.00;102698.03;5032081;28;20625;-50
2023/05/03 02:56:27;;;;;;;12.38;4.88;;;;;;;2.89;100.00;102700.78;5036665;28;20181;-51
2023/05/03 02:58:53;;;;;;;5.70;3.42;;;;;;;2.75;100.00;102701.28;5031557;28;20251;-51
2023/05/03 03:01:20;;;;;;;7.97;4.30;;;;;;;2.74;100.00;102707.47;5026572;28;20247;-54
2023/05/03 03:03:46;;;;;;;8.15;3.90;;;;;;;2.72;100.00;102702.13;5025443;28;20172;-54
2023/05/03 03:06:13;;;;;;;11.32;4.55;;;;;;;2.55;100.00;102698.16;5033151;28;20188;-54
2023/05/03 03:08:38;;;;;;;8.73;4.40;;;;;;;2.49;100.00;102693.59;5029337;28;20185;-52
2023/05/03 03:11:06;;;;;;;8.27;3.92;;;;;;;2.55;100.00;102700.81;5035759;28;20306;-54
2023/05/03 03:13:32;;;;;;;5.60;3.63;;;;;;;2.50;100.00;102698.03;5035687;28;20263;-52
2023/05/03 03:15:59;;;;;;;6.10;3.80;;;;;;;2.51;100.00;102697.19;5042889;28;20216;-54
2023/05/03 03:18:24;;;;;;;11.65;4.38;;;;;;;2.20;100.00;102693.75;5026802;28;20269;-52
2023/05/03 03:20:50;;;;;;;6.05;3.92;;;;;;;2.26;100.00;102703.59;5002766;28;20229;-51
2023/05/03 03:23:17;;;;;;;8.25;4.50;;;;;;;2.36;100.00;102702.06;5035676;28;20202;-51
2023/05/03 03:25:43;;;;;;;6.78;4.78;;;;;;;2.28;100.00;102704.53;5042192;28;20183;-51
2023/05/03 03:28:08;;;;;;;6.82;4.10;;;;;;;2.40;100.00;102699.53;5032404;28;20225;-52
2023/05/03 03:30:34;;;;;;;8.57;4.45;;;;;;;2.13;100.00;102694.44;5036730;28;20527;-51
2023/05/03 03:33:10;;;;;;;9.70;4.38;;;;;;;2.23;100.00;102706.16;5035116;28;20179;-53
2023/05/03 03:35:39;;;;;;;8.43;4.22;;;;;;;2.26;100.00;102700.97;5033497;28;20563;-53
2023/05/03 03:38:05;;;;;;;8.77;4.50;;;;;;;2.34;100.00;102699.41;5030959;28;20270;-53
2023/05/03 03:40:33;;;;;;;11.80;4.60;;;;;;;2.39;100.00;102710.13;5037445;28;20537;-53
2023/05/03 03:42:59;;;;;;;8.30;4.97;;;;;;;2.37;100.00;102699.47;5036063;28;20179;-50
2023/05/03 03:45:25;;;;;;;7.43;4.75;;;;;;;2.24;100.00;102700.91;5029180;28;20203;-51
2023/05/03 03:47:51;;;;;;;8.13;5.00;;;;;;;2.29;100.00;102710.72;5011534;28;20315;-51
2023/05/03 03:50:18;;;;;;;7.20;4.82;;;;;;;2.22;100.00;102701.72;5024333;28;20180;-54
2023/05/03 03:52:44;;;;;;;16.23;5.10;;;;;;;2.03;100.00;102701.25;5032818;28;20211;-52
2023/05/03 03:55:10;;;;;;;7.32;4.03;;;;;;;2.16;100.00;102705.09;5033510;28;20175;-52
2023/05/03 03:57:36;;;;;;;7.47;4.68;;;;;;;2.35;100.00;102708.25;5025210;28;20219;-53
2023/05/03 04:00:09;;;;;;;8.43;4.80;;;;;;;2.37;100.00;102704.78;5044773;28;20266;-51
2023/05/03 04:02:38;;;;;;;7.32;4.57;;;;;;;2.32;100.00;102701.13;5036617;28;20677;-52
2023/05/03 04:05:07;;;;;;;8.05;4.60;;;;;;;2.23;100.00;102695.56;5025165;28;20304;-51
2023/05/03 04:07:33;;;;;;;10.73;4.97;;;;;;;2.40;100.00;102696.00;5029238;28;20180;-53
2023/05/03 04:10:00;;;;;;;8.65;4.47;;;;;;;2.33;100.00;102713.47;5030527;28;20190;-52
2023/05/03 04:12:25;;;;;;;5.47;4.57;;;;;;;2.40;100.00;102706.59;5036611;28;20572;-53
2023/05/03 04:14:51;;;;;;;6.45;4.90;;;;;;;2.54;100.00;102699.03;5012793;28;20188;-51
2023/05/03 04:17:17;;;;;;;7.10;4.20;;;;;;;2.61;100.00;102699.19;5038897;28;20558;-53
2023/05/03 04:19:43;;;;;;;9.35;5.03;;;;;;;2.52;100.00;102698.97;5023257;28;20188;-55
2023/05/03 04:22:10;;;;;;;8.40;4.90;;;;;;;2.71;100.00;102697.66;5034689;28;20211;-53
2023/05/03 04:24:38;;;;;;;8.80;4.50;;;;;;;2.77;100.00;102713.69;5039985;28;20175;-54
2023/05/03 04:27:05;;;;;;;7.38;4.90;;;;;;;2.85;100.00;102708.59;5032606;28;20194;-48
2023/05/03 04:29:33;;;;;;;8.68;4.22;;;;;;;2.94;100.00;102713.22;5038941;28;20216;-52
2023/05/03 04:32:01;;;;;;;6.18;4.05;;;;;;;3.03;100.00;102698.44;5035920;28;20707;-51
2023/05/03 04:34:29;;;;;;;10.23;4.50;;;;;;;3.09;100.00;102705.63;5030824;28;20172;-50
2023/05/03 04:36:55;;;;;;;9.45;4.40;;;;;;;3.24;100.00;102718.34;5028354;28;20608;-47
2023/05/03 04:39:21;;;;;;;8.52;4.78;;;;;;;3.32;100.00;102721.16;5031123;28;20188;-48
2023/05/03 04:41:47;;;;;;;6.50;4.38;;;;;;;3.51;100.00;102713.63;5035082;28;20239;-49
2023/05/03 04:44:13;;;;;;;6.07;5.00;;;;;;;3.47;100.00;102718.81;5031325;28;20747;-50
2023/05/03 04:46:40;;;;;;;8.75;4.80;;;;;;;3.83;100.00;102717.81;5033353;28;20176;-49
2023/05/03 04:49:06;;;;;;;10.40;4.95;;;;;;;3.97;100.00;102718.97;5037138;28;20175;-50
2023/05/03 04:51:32;;;;;;;8.80;5.20;;;;;;;4.21;100.00;102717.66;5031857;28;20216;-49
2023/05/03 04:53:58;;;;;;;9.30;4.85;;;;;;;4.43;100.00;102714.50;5030771;28;20204;-49
2023/05/03 04:56:25;;;;;;;9.95;4.50;;;;;;;4.82;100.00;102718.72;5028846;28;20670;-48
2023/05/03 04:58:54;;;;;;;6.60;4.47;;;;;;;4.99;100.00;102726.06;5038078;28;20172;-51
2023/05/03 05:01:26;;;;;;;8.30;4.50;;;;;;;5.19;100.00;102726.34;5041305;28;20235;-52
2023/05/03 05:03:55;;;;;;;7.70;4.07;;;;;;;5.25;100.00;102730.00;5029618;28;20237;-51
2023/05/03 05:06:26;;;;;;;10.93;4.93;;;;;;;5.46;100.00;102729.38;5034016;28;20176;-47
2023/05/03 05:08:52;;;;;;;9.20;4.07;;;;;;;5.43;100.00;102725.81;5034480;28;20186;-50
2023/05/03 05:11:19;;;;;;;18.50;4.80;;;;;;;5.54;100.00;102721.53;5027465;28;20287;-48
2023/05/03 05:13:44;;;;;;;6.40;4.10;;;;;;;5.80;100.00;102727.16;5031302;28;20180;-47
2023/05/03 05:16:11;;;;;;;5.05;3.78;;;;;;;5.93;100.00;102714.91;5037727;28;20236;-52
2023/05/03 05:18:40;;;;;;;11.38;4.38;;;;;;;5.97;100.00;102720.31;5034347;28;20184;-47
2023/05/03 05:21:08;;;;;;;9.02;4.80;;;;;;;6.08;100.00;102715.13;5023305;28;20278;-47
2023/05/03 05:23:35;;;;;;;8.57;4.05;;;;;;;6.16;100.00;102724.03;5018858;28;20183;-50
2023/05/03 05:26:01;;;;;;;8.15;4.63;;;;;;;6.04;100.00;102723.94;5032739;28;20193;-48
2023/05/03 05:28:30;;;;;;;7.70;3.38;;;;;;;6.27;100.00;102724.16;5032648;28;20354;-49
2023/05/03 05:30:55;;;;;;;7.95;3.35;;;;;;;6.44;100.00;102721.66;5027613;28;20208;-50
2023/05/03 05:33:21;;;;;;;5.53;2.80;;;;;;;6.55;98.83;102721.78;5036192;28;20198;-49
2023/05/03 05:35:48;;;;;;;10.27;2.92;;;;;;;6.80;97.92;102729.09;5037481;28;20234;-47
2023/05/03 05:38:16;;;;;;;8.65;2.88;;;;;;;6.77;96.16;102714.84;5026929;28;20188;-47
2023/05/03 05:40:42;;;;;;;6.18;2.90;;;;;;;7.06;95.54;102724.81;5030298;28;20180;-51
2023/05/03 05:43:08;;;;;;;4.82;2.70;;;;;;;7.31;94.21;102707.22;5032751;28;20185;-48
2023/05/03 05:45:37;;;;;;;5.93;2.55;;;;;;;7.45;92.51;102708.19;5033623;28;20181;-48
2023/05/03 05:48:04;;;;;;;6.28;2.83;;;;;;;7.47;91.25;102722.41;5028653;28;20252;-49
2023/05/03 05:50:30;;;;;;;5.32;2.60;;;;;;;7.36;90.73;102724.13;5025972;28;20279;-49
2023/05/03 05:53:00;;;;;;;6.07;2.75;;;;;;;7.68;89.95;102721.63;5032248;28;20211;-47
2023/05/03 05:55:30;;;;;;;7.65;2.50;;;;;;;8.08;89.09;102710.19;5036069;28;20245;-48
2023/05/03 05:57:57;;;;;;;7.90;2.88;;;;;;;8.11;87.66;102710.19;5028030;28;20180;-47
2023/05/03 06:00:30;;;;;;;4.93;2.35;;;;;;;8.41;86.74;102728.09;5028529;28;20179;-49
2023/05/03 06:02:55;;;;;;;4.75;2.40;;;;;;;8.62;85.27;102719.22;5025942;28;20646;-51
2023/05/03 06:05:21;;;;;;;6.10;2.65;;;;;;;8.89;84.41;102712.94;5038857;28;20628;-50
2023/05/03 06:07:47;;;;;;;5.20;2.42;;;;;;;9.23;83.03;102718.25;5029547;28;20188;-46
2023/05/03 06:10:13;;;;;;;5.47;2.60;;;;;;;9.54;81.90;102712.81;5029170;28;20181;-49
2023/05/03 06:12:44;;;;;;;4.25;2.35;;;;;;;9.38;80.57;102701.25;5035277;28;20265;-47
2023/05/03 06:15:14;;;;;;;7.15;2.50;;;;;;;9.39;79.49;102698.59;5033019;28;20176;-49
2023/05/03 06:17:39;;;;;;;5.55;2.83;;;;;;;8.85;80.06;102703.16;5033661;28;20242;-49
2023/05/03 06:20:10;;;;;;;5.32;2.35;;;;;;;9.32;80.51;102718.22;5029444;28;20254;-49
2023/05/03 06:22:37;;;;;;;6.32;2.53;;;;;;;9.12;79.88;102712.94;5033980;28;20631;-46
2023/05/03 06:25:03;;;;;;;10.25;2.78;;;;;;;9.02;79.53;102706.69;5027953;28;20205;-49
2023/05/03 06:27:29;;;;;;;9.05;2.53;;;;;;;8.93;80.08;102711.19;5028551;28;20254;-50
2023/05/03 06:29:56;;;;;;;5.13;2.50;;;;;;;9.10;79.69;102719.19;5029783;28;20714;-49
2023/05/03 06:32:22;;;;;;;9.55;2.60;;;;;;;9.89;78.95;102708.19;5036850;28;20302;-47
2023/05/03 06:34:48;;;;;;;9.02;2.30;;;;;;;9.52;77.81;102714.59;5043671;28;20191;-49
2023/05/03 06:37:14;;;;;;;5.60;2.30;;;;;;;9.73;77.67;102719.88;5023728;28;20188;-48
2023/05/03 06:39:40;;;;;;;5.75;2.42;;;;;;;9.56;76.97;102716.38;5032199;28;20679;-47
2023/05/03 06:42:06;;;;;;;8.90;3.10;;;;;;;10.05;76.55;102705.41;5031482;28;20210;-46
2023/05/03 06:44:35;;;;;;;6.43;2.20;;;;;;;10.14;75.15;102696.44;5035520;28;20226;-46
2023/05/03 06:47:01;;;;;;;11.38;2.78;;;;;;;10.40;74.62;102701.66;5030954;28;20612;-48
2023/05/03 06:49:26;;;;;;;11.05;2.88;;;;;;;9.90;73.93;102691.25;5032689;28;20164;-47
2023/05/03 06:51:52;;;;;;;11.43;3.35;;;;;;;9.72;75.45;102710.06;5043624;28;20302;-47
2023/05/03 06:54:18;;;;;;;10.27;2.70;;;;;;;10.01;74.99;102704.53;5028327;28;20619;-50
2023/05/03 06:56:45;;;;;;;8.20;2.60;;;;;;;10.03;75.35;102701.84;5025485;28;20180;-48
2023/05/03 06:59:10;;;;;;;12.00;2.58;;;;;;;10.14;75.41;102697.31;5031269;28;20183;-50
2023/05/03 07:01:36;;;;;;;7.10;2.50;;;;;;;9.72;75.77;102711.84;5035686;28;20207;-47
2023/05/03 07:04:01;;;;;;;13.02;2.60;;;;;;;9.59;75.68;102711.88;5024483;28;20423;-47
2023/05/03 07:06:27;;;;;;;10.57;2.53;;;;;;;9.68;76.49;102711.84;5024768;28;20203;-48
2023/05/03 07:08:53;;;;;;;9.55;3.33;;;;;;;9.53;76.75;102717.25;5039727;28;20177;-48
2023/05/03 07:11:22;;;;;;;8.57;2.50;;;;;;;10.17;76.64;102723.22;5028817;28;20602;-47
2023/05/03 07:13:52;;;;;;;8.77;2.28;;;;;;;9.97;75.79;102702.81;5029905;28;20180;-48
2023/05/03 07:16:18;;;;;;;9.40;2.70;;;;;;;10.54;74.92;102705.13;5020770;28;20183;-50
2023/05/03 07:18:45;;;;;;;5.95;1.95;;;;;;;10.08;74.48;102695.59;5040224;28;20184;-50
2023/05/03 07:21:12;;;;;;;10.25;2.53;;;;;;;10.57;73.00;102697.06;5033981;28;20470;-49
2023/05/03 07:23:38;;;;;;;6.60;2.13;;;;;;;11.00;72.51;102685.03;5025234;28;20176;-48
2023/05/03 07:26:03;;;;;;;8.25;2.40;;;;;;;10.72;71.59;102678.16;5023706;28;20206;-47
2023/05/03 07:28:29;;;;;;;9.43;2.42;;;;;;;10.85;71.30;102678.06;5035821;28;20214;-48
2023/05/03 07:30:54;;;;;;;8.10;1.83;;;;;;;10.57;71.34;102672.03;5034460;28;20732;-47
2023/05/03 07:33:20;;;;;;;9.45;2.00;;;;;;;10.15;71.41;102674.13;5030361;28;20177;-46
2023/05/03 07:35:45;;;;;;;8.80;2.20;;;;;;;10.82;71.05;102683.44;5027517;28;20278;-47
2023/05/03 07:38:12;;;;;;;9.82;2.40;;;;;;;10.70;69.38;102673.72;5027583;28;20188;-47
2023/05/03 07:40:37;;;;;;;6.07;2.35;;;;;;;10.15;69.64;102668.78;5030084;28;20251;-48
2023/05/03 07:43:03;;;;;;;6.28;2.40;;;;;;;11.20;69.54;102668.75;5025762;28;20207;-50
2023/05/03 07:45:29;;;;;;;7.68;2.60;;;;;;;11.28;68.80;102673.13;5031508;28;20251;-50
2023/05/03 07:47:55;;;;;;;8.90;2.10;;;;;;;11.98;67.76;102665.06;5034123;28;20552;-50
2023/05/03 07:50:21;;;;;;;5.22;1.60;;;;;;;12.10;65.35;102642.50;5039255;28;20250;-49
2023/05/03 07:52:50;;;;;;;6.95;1.60;;;;;;;12.38;63.56;102631.31;5020249;28;20804;-48
2023/05/03 07:55:17;;;;;;;7.53;1.50;;;;;;;12.02;61.38;102606.81;5033875;28;20626;-47
2023/05/03 07:57:42;;;;;;;6.35;1.80;;;;;;;11.88;62.09;102615.97;5030043;28;20273;-48
2023/05/03 08:00:09;;;;;;;9.07;2.17;;;;;;;12.58;61.48;102624.66;5030947;28;20220;-50
2023/05/03 08:02:38;;;;;;;6.38;1.48;;;;;;;12.89;60.74;102623.22;5032768;28;20219;-50
2023/05/03 08:05:04;;;;;;;5.93;1.60;;;;;;;12.89;59.24;102596.31;5044881;28;20591;-47
2023/05/03 08:07:30;;;;;;;7.20;1.50;;;;;;;13.10;59.34;102611.16;5039970;28;20314;-48
2023/05/03 08:09:57;;;;;;;5.10;1.50;;;;;;;12.60;58.67;102603.13;5035537;28;20193;-47
2023/05/03 08:12:25;;;;;;;6.28;2.20;;;;;;;11.78;59.79;102611.59;5024900;28;20200;-48
2023/05/03 08:14:55;;;;;;;4.28;1.45;;;;;;;10.93;62.06;102633.25;5037060;28;20610;-47
2023/05/03 08:17:22;;;;;;;6.40;1.75;;;;;;;11.09;62.60;102642.03;5033879;28;20249;-50
2023/05/03 08:19:51;;;;;;;5.45;1.90;;;;;;;10.51;63.26;102648.84;5037143;28;20254;-48
2023/05/03 08:22:17;;;;;;;4.90;1.50;;;;;;;10.64;63.47;102663.03;5034686;28;20191;-51
2023/05/03 08:24:42;;;;;;;5.32;1.80;;;;;;;10.45;63.89;102656.94;5042196;28;20637;-50
2023/05/03 08:27:09;;;;;;;6.68;1.85;;;;;;;10.36;64.73;102665.94;5033297;28;20172;-49
2023/05/03 08:29:38;;;;;;;9.93;2.03;;;;;;;10.59;65.03;102678.28;5025920;28;20658;-48
2023/05/03 08:32:04;;;;;;;3.20;1.40;;;;;;;10.80;64.89;102675.41;5035095;28;20242;-49
2023/05/03 08:34:30;;;;;;;9.63;1.73;;;;;;;10.42;65.49;102675.75;5040377;28;20258;-49
2023/05/03 08:36:56;;;;;;;7.63;1.63;;;;;;;10.30;65.78;102680.28;5029911;28;20186;-47
2023/05/03 08:39:26;;;;;;;5.38;2.10;;;;;;;10.37;65.70;102688.28;5024368;28;20195;-45
2023/05/03 08:41:54;;;;;;;8.05;1.80;;;;;;;10.31;65.43;102679.38;5035970;28;20195;-49
2023/05/03 08:44:22;;;;;;;4.50;1.73;;;;;;;9.96;65.06;102676.03;5030425;28;20199;-51
2023/05/03 08:46:48;;;;;;;9.05;1.92;;;;;;;10.01;65.60;102676.88;5034942;28;20188;-50
2023/05/03 08:49:16;;;;;;;6.38;1.77;;;;;;;10.10;65.01;102676.81;5029619;28;20177;-51
2023/05/03 08:51:45;;;;;;;8.45;1.75;;;;;;;9.81;65.05;102672.53;5029588;28;20314;-51
2023/05/03 08:54:13;;;;;;;4.97;1.70;;;;;;;10.09;65.24;102675.94;5036857;28;20557;-51
2023/05/03 08:56:40;;;;;;;3.97;1.67;;;;;;;10.13;65.18;102678.59;5029992;28;20172;-50
2023/05/03 08:59:07;;;;;;;9.23;1.70;;;;;;;9.88;64.60;102676.97;5022642;28;20183;-51
2023/05/03 09:01:35;;;;;;;4.53;1.63;;;;;;;10.34;64.44;102680.25;5034148;28;20192;-50
2023/05/03 09:04:02;;;;;;;8.90;2.08;;;;;;;10.66;63.83;102680.88;5034493;28;20212;-52
2023/05/03 09:06:28;;;;;;;4.68;1.45;;;;;;;11.29;62.66;102666.84;5033015;28;20192;-51
2023/05/03 09:08:54;;;;;;;6.38;2.08;;;;;;;11.21;62.06;102662.47;5028079;28;20176;-50
2023/05/03 09:11:21;;;;;;;5.57;1.25;;;;;;;10.85;61.99;102665.53;5032062;28;20597;-51
2023/05/03 09:13:47;;;;;;;5.35;1.48;;;;;;;10.66;61.70;102653.19;5033499;28;20229;-51
2023/05/03 09:16:30;;;;;;;6.80;1.70;;;;;;;10.57;62.99;102666.69;5032337;28;20535;-51
2023/05/03 09:19:00;;;;;;;6.95;1.90;;;;;;;10.62;63.77;102684.50;5033159;28;20207;-49
2023/05/03 09:21:27;;;;;;;6.88;1.85;;;;;;;10.61;64.38;102682.72;5034720;28;20249;-48
2023/05/03 09:23:53;;;;;;;10.15;1.70;;;;;;;10.33;64.65;102676.69;5042831;28;20171;-49
2023/05/03 09:26:33;;;;;;;6.13;1.75;;;;;;;10.78;64.23;102681.66;5024451;28;20194;-50
2023/05/03 09:29:03;;;;;;;4.20;1.60;;;;;;;10.75;63.51;102679.03;5034777;28;20646;-50
2023/05/03 09:31:30;;;;;;;6.93;1.75;;;;;;;10.86;63.59;102680.69;5029562;28;20215;-48
2023/05/03 09:33:56;;;;;;;5.95;1.95;;;;;;;10.66;64.13;102685.38;5033369;28;20175;-47
2023/05/03 09:36:22;;;;;;;9.13;2.05;;;;;;;10.74;64.94;102698.72;5028710;28;20563;-50
2023/05/03 09:38:49;;;;;;;9.25;2.28;;;;;;;10.99;64.88;102697.56;5034252;28;20189;-48
2023/05/03 09:41:15;;;;;;;5.63;1.48;;;;;;;10.37;64.88;102696.34;5036358;28;20207;-49
2023/05/03 09:43:49;;;;;;;8.27;1.80;;;;;;;10.03;64.55;102685.78;5026151;28;20585;-50
2023/05/03 09:46:14;;;;;;;5.70;1.73;;;;;;;10.41;64.55;102696.28;5024413;28;20258;-49
2023/05/03 09:48:40;;;;;;;6.55;1.90;;;;;;;10.50;64.09;102695.34;5031565;28;20648;-51
2023/05/03 09:51:07;;;;;;;6.88;1.63;;;;;;;10.74;63.43;102677.28;5035443;28;20195;-51
2023/05/03 09:53:34;;;;;;;5.07;1.90;;;;;;;10.86;63.15;102682.50;5039132;28;20592;-51
2023/05/03 09:56:04;;;;;;;6.28;1.85;;;;;;;10.33;62.66;102665.09;5035067;28;20199;-50
2023/05/03 09:58:33;;;;;;;7.28;1.90;;;;;;;10.97;62.88;102685.06;5027233;28;20178;-51
2023/05/03 10:00:59;;;;;;;7.22;1.63;;;;;;;10.89;61.80;102661.91;5034409;28;20213;-47
2023/05/03 10:03:38;;;;;;;5.43;1.92;;;;;;;10.57;61.15;102659.53;5026335;28;20551;-51
2023/05/03 10:06:06;;;;;;;7.53;2.20;;;;;;;10.01;63.76;102674.19;5032371;28;20242;-49
2023/05/03 10:08:40;;;;;;;6.10;2.00;;;;;;;10.17;65.45;102701.78;5038453;28;20185;-50
2023/05/03 10:11:08;;;;;;;5.50;1.70;;;;;;;10.67;65.54;102716.63;5027183;28;20210;-49
2023/05/03 10:13:34;;;;;;;5.10;1.95;;;;;;;10.64;65.26;102705.94;5023033;28;20630;-50
2023/05/03 10:16:05;;;;;;;5.78;2.00;;;;;;;10.62;65.17;102697.88;5029018;28;20699;-50
2023/05/03 10:18:32;;;;;;;3.95;1.67;;;;;;;10.45;64.67;102686.41;5025083;28;20180;-48
2023/05/03 10:21:06;;;;;;;9.73;2.20;;;;;;;9.90;65.25;102691.25;5020234;28;20210;-49
2023/05/03 10:23:31;;;;;;;5.00;2.13;;;;;;;10.16;65.40;102692.84;5031254;28;20191;-47
2023/05/03 10:26:06;;;;;;;5.07;2.03;;;;;;;10.30;65.09;102701.72;5030896;28;20171;-47
2023/05/03 10:28:33;;;;;;;6.07;2.30;;;;;;;10.26;65.91;102705.28;5037601;28;20194;-48
2023/05/03 10:30:58;;;;;;;5.78;2.33;;;;;;;10.17;65.12;102699.13;5042340;28;20211;-52
2023/05/03 10:33:36;;;;;;;5.30;1.85;;;;;;;10.49;65.52;102706.94;5037398;28;20239;-48
2023/05/03 10:36:06;;;;;;;5.32;1.80;;;;;;;10.35;64.65;102685.63;5027995;28;20187;-48
2023/05/03 10:38:32;;;;;;;8.73;2.28;;;;;;;10.59;64.72;102686.31;5032397;28;20700;-48
2023/05/03 10:41:00;;;;;;;9.73;2.42;;;;;;;10.96;64.61;102689.56;5028795;28;20620;-48
2023/05/03 10:43:31;;;;;;;5.70;1.80;;;;;;;11.03;64.18;102677.84;5029985;28;20658;-46
2023/05/03 10:46:01;;;;;;;5.45;1.50;;;;;;;11.17;62.73;102672.31;5025468;28;20199;-50
2023/05/03 10:48:28;;;;;;;4.45;1.73;;;;;;;11.49;61.56;102660.34;5029878;28;20183;-48
2023/05/03 10:50:55;;;;;;;6.28;2.05;;;;;;;11.61;60.98;102644.09;5020841;28;20698;-48
2023/05/03 10:53:30;;;;;;;6.72;1.92;;;;;;;11.87;60.40;102654.47;5029672;28;20194;-48
2023/05/03 10:56:04;;;;;;;5.53;2.25;;;;;;;11.77;59.32;102628.63;5026423;28;20183;-53
2023/05/03 10:58:34;;;;;;;5.25;1.73;;;;;;;12.06;58.78;102619.28;5027549;28;20171;-49
2023/05/03 11:01:01;;;;;;;7.22;2.00;;;;;;;11.76;58.26;102610.72;5027915;28;20219;-54
2023/05/03 11:03:36;;;;;;;5.95;1.88;;;;;;;11.46;59.24;102629.06;5038072;28;20180;-51
2023/05/03 11:06:02;;;;;;;5.15;2.22;;;;;;;11.58;59.67;102636.06;5026738;28;20179;-50
2023/05/03 11:08:29;;;;;;;8.55;1.98;;;;;;;11.49;60.01;102639.75;5043370;28;20183;-48
2023/05/03 11:11:01;;;;;;;8.80;2.05;;;;;;;11.48;59.58;102629.03;5026942;28;20205;-48
2023/05/03 11:13:26;;;;;;;4.25;1.77;;;;;;;11.74;60.38;102650.16;5027091;28;20189;-48
2023/05/03 11:15:53;;;;;;;4.72;1.83;;;;;;;11.82;60.25;102642.00;5030389;28;20608;-50
2023/05/03 11:18:19;;;;;;;6.05;2.20;;;;;;;11.58;59.17;102638.72;5022838;28;20208;-48
2023/05/03 11:20:45;;;;;;;6.10;1.88;;;;;;;11.61;60.16;102653.91;5028735;28;20206;-48
2023/05/03 11:23:11;;;;;;;8.30;2.00;;;;;;;11.55;60.44;102647.72;5037889;28;20172;-50
2023/05/03 11:25:37;;;;;;;9.82;2.10;;;;;;;11.84;60.45;102645.56;5029686;28;20673;-47
2023/05/03 11:28:03;;;;;;;6.32;2.13;;;;;;;11.52;60.07;102634.34;5024662;28;20184;-50